PWSweather.com
Personal Weather Stations
Station Observations
BAYPARK
Bay Park, Ny, East Rockaway, NY 11518

Bay Park, NyEast Rockaway, NY 11518

Lat: 40.6310098, Lon: -73.6727287

Elevation: 11

Station Type: AcuRite Pro

https://www.awekas.at/en/instrument.php?id=14894

High Low Average
Temperature 74.3°F23.5°C 55.3°F12.9°C 64.7°F18.2°C
Dew Point 57.0°F13.9°C 50.1°F10.1°C 54.1°F12.3°C
Winds 4.1 mph 6.6 kmh Calm Calm 2.0 mph SSE3.2 kmh SSE
Wind Gusts 8.9 mph14.3 kmh -- 4.0 mph6.4 kmh
Humidity 97% 52% 70%
Pressure 30.50 in1032.8 mb 30.33 in1027.1 mb -
Precipitation 0.00 in0.0 mm - -
Hour Temp Dew Point Humidity Winds Wind Gusts Pressure Precip Precip Rate Daily Precip Total
12:00 AM 63.1°F17.3°C 54.5°F12.5°C 73% 1.2 mph NNE1.9 kmh NNE 3.2 mph5.1 kmh 30.33 in1027.1 mb 0.00 in0.0 mm 0.00 in0.0 mm 0.00 in0.0 mm
12:05 AM 63.0°F17.2°C 54.6°F12.6°C 74% 1.7 mph E2.7 kmh E 3.7 mph6.0 kmh 30.33 in1027.1 mb 0.00 in0.0 mm 0.00 in0.0 mm 0.00 in0.0 mm
12:10 AM 63.0°F17.2°C 54.6°F12.6°C 74% 0.9 mph NNE1.4 kmh NNE 2.2 mph3.5 kmh 30.33 in1027.1 mb 0.00 in0.0 mm 0.00 in0.0 mm 0.00 in0.0 mm
12:15 AM 62.8°F17.1°C 54.4°F12.4°C 74% 1.1 mph SE1.8 kmh SE 3.7 mph6.0 kmh 30.34 in1027.4 mb 0.00 in0.0 mm 0.00 in0.0 mm 0.00 in0.0 mm
12:20 AM 62.8°F17.1°C 54.8°F12.7°C 75% 1.8 mph SE2.9 kmh SE 3.7 mph6.0 kmh 30.34 in1027.4 mb 0.00 in0.0 mm 0.00 in0.0 mm 0.00 in0.0 mm
12:25 AM 62.7°F17.1°C 54.7°F12.6°C 75% 1.5 mph W2.4 kmh W 6.3 mph10.1 kmh 30.34 in1027.4 mb 0.00 in0.0 mm 0.00 in0.0 mm 0.00 in0.0 mm
12:30 AM 62.6°F17.0°C 54.6°F12.6°C 75% 1.3 mph SE2.1 kmh SE 2.7 mph4.3 kmh 30.34 in1027.4 mb 0.00 in0.0 mm 0.00 in0.0 mm 0.00 in0.0 mm
12:35 AM 62.5°F16.9°C 54.4°F12.4°C 75% 1.7 mph E2.7 kmh E 3.7 mph6.0 kmh 30.34 in1027.4 mb 0.00 in0.0 mm 0.00 in0.0 mm 0.00 in0.0 mm
12:40 AM 62.4°F16.9°C 54.4°F12.4°C 75% 1.6 mph SW2.6 kmh SW 4.7 mph7.6 kmh 30.34 in1027.4 mb 0.00 in0.0 mm 0.00 in0.0 mm 0.00 in0.0 mm
12:45 AM 62.4°F16.9°C 54.4°F12.4°C 75% 1.4 mph SSE2.3 kmh SSE 3.2 mph5.1 kmh 30.34 in1027.4 mb 0.00 in0.0 mm 0.00 in0.0 mm 0.00 in0.0 mm
12:50 AM 62.4°F16.9°C 54.4°F12.4°C 75% 1.3 mph WNW2.1 kmh WNW 2.2 mph3.5 kmh 30.35 in1027.8 mb 0.00 in0.0 mm 0.00 in0.0 mm 0.00 in0.0 mm
12:55 AM 62.3°F16.8°C 54.3°F12.4°C 75% 1.6 mph SE2.6 kmh SE 2.7 mph4.3 kmh 30.35 in1027.8 mb 0.00 in0.0 mm 0.00 in0.0 mm 0.00 in0.0 mm
01:00 AM 62.2°F16.8°C 54.4°F12.4°C 76% 1.0 mph W1.6 kmh W 3.7 mph6.0 kmh 30.35 in1027.8 mb 0.00 in0.0 mm 0.00 in0.0 mm 0.00 in0.0 mm
01:05 AM 62.0°F16.7°C 54.3°F12.4°C 76% 1.2 mph S1.9 kmh S 2.7 mph4.3 kmh 30.35 in1027.8 mb 0.00 in0.0 mm 0.00 in0.0 mm 0.00 in0.0 mm
01:10 AM 61.8°F16.6°C 54.1°F12.3°C 76% 1.1 mph E1.8 kmh E 4.2 mph6.8 kmh 30.35 in1027.8 mb 0.00 in0.0 mm 0.00 in0.0 mm 0.00 in0.0 mm
01:15 AM 61.6°F16.4°C 54.0°F12.2°C 76% 1.9 mph ESE3.1 kmh ESE 4.7 mph7.6 kmh 30.35 in1027.8 mb 0.00 in0.0 mm 0.00 in0.0 mm 0.00 in0.0 mm
01:20 AM 61.5°F16.4°C 53.9°F12.2°C 76% 1.3 mph SSE2.1 kmh SSE 3.2 mph5.1 kmh 30.35 in1027.8 mb 0.00 in0.0 mm 0.00 in0.0 mm 0.00 in0.0 mm
01:25 AM 61.3°F16.3°C 54.0°F12.2°C 77% 0.5 mph SE0.8 kmh SE 1.7 mph2.7 kmh 30.35 in1027.8 mb 0.00 in0.0 mm 0.00 in0.0 mm 0.00 in0.0 mm
01:30 AM 61.1°F16.2°C 53.9°F12.2°C 77% 0.8 mph SE1.3 kmh SE 2.2 mph3.5 kmh 30.35 in1027.8 mb 0.00 in0.0 mm 0.00 in0.0 mm 0.00 in0.0 mm
01:35 AM 60.9°F16.1°C 54.0°F12.2°C 78% 1.0 mph SE1.6 kmh SE 2.2 mph3.5 kmh 30.35 in1027.8 mb 0.00 in0.0 mm 0.00 in0.0 mm 0.00 in0.0 mm
01:40 AM 60.7°F15.9°C 54.0°F12.2°C 78% 0.1 mph N0.2 kmh N 1.1 mph1.8 kmh 30.35 in1027.8 mb 0.00 in0.0 mm 0.00 in0.0 mm 0.00 in0.0 mm
01:45 AM 60.5°F15.8°C 53.9°F12.2°C 79% 0.7 mph W1.1 kmh W 2.2 mph3.5 kmh 30.35 in1027.8 mb 0.00 in0.0 mm 0.00 in0.0 mm 0.00 in0.0 mm
01:50 AM 60.4°F15.8°C 53.9°F12.2°C 79% 1.2 mph SE1.9 kmh SE 4.2 mph6.8 kmh 30.35 in1027.8 mb 0.00 in0.0 mm 0.00 in0.0 mm 0.00 in0.0 mm
01:55 AM 60.3°F15.7°C 53.8°F12.1°C 79% 0.8 mph N1.3 kmh N 1.7 mph2.7 kmh 30.35 in1027.8 mb 0.00 in0.0 mm 0.00 in0.0 mm 0.00 in0.0 mm
02:00 AM 60.2°F15.7°C 53.9°F12.2°C 80% 0.5 mph WSW0.8 kmh WSW 2.7 mph4.3 kmh 30.35 in1027.8 mb 0.00 in0.0 mm 0.00 in0.0 mm 0.00 in0.0 mm
02:05 AM 59.9°F15.5°C 53.7°F12.1°C 80% 0.4 mph SE0.6 kmh SE 3.2 mph5.1 kmh 30.35 in1027.8 mb 0.00 in0.0 mm 0.00 in0.0 mm 0.00 in0.0 mm
02:10 AM 59.9°F15.5°C 53.8°F12.1°C 80% 0.4 mph ESE0.6 kmh ESE 2.7 mph4.3 kmh 30.35 in1027.8 mb 0.00 in0.0 mm 0.00 in0.0 mm 0.00 in0.0 mm
02:15 AM 59.8°F15.4°C 53.9°F12.2°C 81% 0.3 mph SSW0.5 kmh SSW 1.1 mph1.8 kmh 30.35 in1027.8 mb 0.00 in0.0 mm 0.00 in0.0 mm 0.00 in0.0 mm
02:20 AM 59.5°F15.3°C 53.7°F12.1°C 81% 0.4 mph S0.6 kmh S 1.1 mph1.8 kmh 30.35 in1027.8 mb 0.00 in0.0 mm 0.00 in0.0 mm 0.00 in0.0 mm
02:25 AM 59.4°F15.2°C 53.9°F12.2°C 82% 0.3 mph E0.5 kmh E 2.2 mph3.5 kmh 30.35 in1027.8 mb 0.00 in0.0 mm 0.00 in0.0 mm 0.00 in0.0 mm
02:30 AM 59.4°F15.2°C 54.0°F12.2°C 82% 0.3 mph E0.5 kmh E 1.1 mph1.8 kmh 30.35 in1027.8 mb 0.00 in0.0 mm 0.00 in0.0 mm 0.00 in0.0 mm
02:35 AM 59.2°F15.1°C 54.0°F12.2°C 83% 0.6 mph ESE1.0 kmh ESE 2.2 mph3.5 kmh 30.35 in1027.8 mb 0.00 in0.0 mm 0.00 in0.0 mm 0.00 in0.0 mm
02:40 AM 59.2°F15.1°C 54.0°F12.2°C 83% 0.3 mph SE0.5 kmh SE 1.1 mph1.8 kmh 30.36 in1028.1 mb 0.00 in0.0 mm 0.00 in0.0 mm 0.00 in0.0 mm
02:45 AM 59.1°F15.1°C 53.9°F12.2°C 83% 0.1 mph SSE0.2 kmh SSE 1.1 mph1.8 kmh 30.36 in1028.1 mb 0.00 in0.0 mm 0.00 in0.0 mm 0.00 in0.0 mm
02:50 AM 59.0°F15.0°C 53.8°F12.1°C 83% 0.5 mph SE0.8 kmh SE 2.2 mph3.5 kmh 30.36 in1028.1 mb 0.00 in0.0 mm 0.00 in0.0 mm 0.00 in0.0 mm
02:55 AM 59.0°F15.0°C 54.1°F12.3°C 84% 0.4 mph SE0.6 kmh SE 2.7 mph4.3 kmh 30.36 in1028.1 mb 0.00 in0.0 mm 0.00 in0.0 mm 0.00 in0.0 mm
03:00 AM 58.7°F14.8°C 53.9°F12.2°C 84% 0.2 mph S0.3 kmh S 1.7 mph2.7 kmh 30.36 in1028.1 mb 0.00 in0.0 mm 0.00 in0.0 mm 0.00 in0.0 mm
03:05 AM 58.6°F14.8°C 54.0°F12.2°C 85% Calm Calm -- 30.36 in1028.1 mb 0.00 in0.0 mm 0.00 in0.0 mm 0.00 in0.0 mm
03:10 AM 58.4°F14.7°C 53.9°F12.2°C 85% Calm Calm -- 30.36 in1028.1 mb 0.00 in0.0 mm 0.00 in0.0 mm 0.00 in0.0 mm
03:15 AM 58.2°F14.6°C 53.8°F12.1°C 85% Calm Calm -- 30.37 in1028.4 mb 0.00 in0.0 mm 0.00 in0.0 mm 0.00 in0.0 mm
03:20 AM 57.9°F14.4°C 53.8°F12.1°C 86% Calm Calm -- 30.37 in1028.4 mb 0.00 in0.0 mm 0.00 in0.0 mm 0.00 in0.0 mm
03:25 AM 57.8°F14.3°C 53.9°F12.2°C 87% Calm Calm -- 30.37 in1028.4 mb 0.00 in0.0 mm 0.00 in0.0 mm 0.00 in0.0 mm
03:30 AM 57.6°F14.2°C 53.9°F12.2°C 88% Calm Calm -- 30.37 in1028.4 mb 0.00 in0.0 mm 0.00 in0.0 mm 0.00 in0.0 mm
03:35 AM 57.5°F14.2°C 54.0°F12.2°C 88% Calm Calm -- 30.37 in1028.4 mb 0.00 in0.0 mm 0.00 in0.0 mm 0.00 in0.0 mm
03:40 AM 57.4°F14.1°C 54.2°F12.3°C 89% 0.1 mph N0.2 kmh N 1.1 mph1.8 kmh 30.37 in1028.4 mb 0.00 in0.0 mm 0.00 in0.0 mm 0.00 in0.0 mm
03:45 AM 57.4°F14.1°C 54.2°F12.3°C 89% Calm Calm -- 30.38 in1028.8 mb 0.00 in0.0 mm 0.00 in0.0 mm 0.00 in0.0 mm
03:50 AM 57.2°F14.0°C 54.0°F12.2°C 89% 0.4 mph NE0.6 kmh NE 2.2 mph3.5 kmh 30.38 in1028.8 mb 0.00 in0.0 mm 0.00 in0.0 mm 0.00 in0.0 mm
03:55 AM 57.2°F14.0°C 54.1°F12.3°C 90% 0.2 mph SW0.3 kmh SW 1.1 mph1.8 kmh 30.38 in1028.8 mb 0.00 in0.0 mm 0.00 in0.0 mm 0.00 in0.0 mm
04:00 AM 57.2°F14.0°C 54.3°F12.4°C 90% 0.1 mph W0.2 kmh W 1.7 mph2.7 kmh 30.38 in1028.8 mb 0.00 in0.0 mm 0.00 in0.0 mm 0.00 in0.0 mm
04:05 AM 57.3°F14.1°C 54.4°F12.4°C 90% Calm Calm -- 30.38 in1028.8 mb 0.00 in0.0 mm 0.00 in0.0 mm 0.00 in0.0 mm
04:10 AM 57.0°F13.9°C 54.1°F12.3°C 90% 0.1 mph NE0.2 kmh NE 1.1 mph1.8 kmh 30.38 in1028.8 mb 0.00 in0.0 mm 0.00 in0.0 mm 0.00 in0.0 mm
04:15 AM 57.0°F13.9°C 54.1°F12.3°C 90% 0.2 mph E0.3 kmh E 1.7 mph2.7 kmh 30.39 in1029.1 mb 0.00 in0.0 mm 0.00 in0.0 mm 0.00 in0.0 mm
04:20 AM 57.0°F13.9°C 54.0°F12.2°C 90% 0.3 mph S0.5 kmh S 2.2 mph3.5 kmh 30.39 in1029.1 mb 0.00 in0.0 mm 0.00 in0.0 mm 0.00 in0.0 mm
04:25 AM 57.0°F13.9°C 54.1°F12.3°C 90% 0.1 mph N0.2 kmh N 1.1 mph1.8 kmh 30.39 in1029.1 mb 0.00 in0.0 mm 0.00 in0.0 mm 0.00 in0.0 mm
04:30 AM 57.0°F13.9°C 54.1°F12.3°C 90% 0.1 mph N0.2 kmh N 1.1 mph1.8 kmh 30.39 in1029.1 mb 0.00 in0.0 mm 0.00 in0.0 mm 0.00 in0.0 mm
04:35 AM 56.8°F13.8°C 53.9°F12.2°C 90% 0.4 mph ESE0.6 kmh ESE 2.7 mph4.3 kmh 30.39 in1029.1 mb 0.00 in0.0 mm 0.00 in0.0 mm 0.00 in0.0 mm
04:40 AM 56.8°F13.8°C 53.9°F12.2°C 90% 0.3 mph SE0.5 kmh SE 3.2 mph5.1 kmh 30.40 in1029.5 mb 0.00 in0.0 mm 0.00 in0.0 mm 0.00 in0.0 mm
04:45 AM 56.8°F13.8°C 53.9°F12.2°C 90% 0.2 mph SE0.3 kmh SE 1.7 mph2.7 kmh 30.40 in1029.5 mb 0.00 in0.0 mm 0.00 in0.0 mm 0.00 in0.0 mm
04:50 AM 56.7°F13.7°C 54.1°F12.3°C 91% Calm Calm -- 30.40 in1029.5 mb 0.00 in0.0 mm 0.00 in0.0 mm 0.00 in0.0 mm
04:55 AM 56.7°F13.7°C 54.1°F12.3°C 91% Calm Calm -- 30.40 in1029.5 mb 0.00 in0.0 mm 0.00 in0.0 mm 0.00 in0.0 mm
05:00 AM 56.5°F13.6°C 54.2°F12.3°C 92% Calm Calm -- 30.40 in1029.5 mb 0.00 in0.0 mm 0.00 in0.0 mm 0.00 in0.0 mm
05:05 AM 56.4°F13.6°C 54.4°F12.4°C 93% Calm Calm -- 30.41 in1029.8 mb 0.00 in0.0 mm 0.00 in0.0 mm 0.00 in0.0 mm
05:10 AM 56.3°F13.5°C 54.3°F12.4°C 93% Calm Calm -- 30.41 in1029.8 mb 0.00 in0.0 mm 0.00 in0.0 mm 0.00 in0.0 mm
05:15 AM 56.2°F13.4°C 54.2°F12.3°C 93% Calm Calm -- 30.41 in1029.8 mb 0.00 in0.0 mm 0.00 in0.0 mm 0.00 in0.0 mm
05:20 AM 56.0°F13.3°C 54.0°F12.2°C 93% Calm Calm -- 30.41 in1029.8 mb 0.00 in0.0 mm 0.00 in0.0 mm 0.00 in0.0 mm
05:25 AM 55.9°F13.3°C 54.1°F12.3°C 94% Calm Calm -- 30.41 in1029.8 mb 0.00 in0.0 mm 0.00 in0.0 mm 0.00 in0.0 mm
05:30 AM 55.8°F13.2°C 54.1°F12.3°C 94% 0.1 mph N0.2 kmh N 1.1 mph1.8 kmh 30.41 in1029.8 mb 0.00 in0.0 mm 0.00 in0.0 mm 0.00 in0.0 mm
05:35 AM 55.8°F13.2°C 54.3°F12.4°C 95% Calm Calm -- 30.42 in1030.1 mb 0.00 in0.0 mm 0.00 in0.0 mm 0.00 in0.0 mm
05:40 AM 55.6°F13.1°C 54.2°F12.3°C 95% Calm Calm -- 30.42 in1030.1 mb 0.00 in0.0 mm 0.00 in0.0 mm 0.00 in0.0 mm
05:45 AM 55.4°F13.0°C 54.0°F12.2°C 95% Calm Calm -- 30.42 in1030.1 mb 0.00 in0.0 mm 0.00 in0.0 mm 0.00 in0.0 mm
05:50 AM 55.3°F12.9°C 54.2°F12.3°C 96% Calm Calm -- 30.43 in1030.5 mb 0.00 in0.0 mm 0.00 in0.0 mm 0.00 in0.0 mm
05:55 AM 55.3°F12.9°C 54.2°F12.3°C 96% 0.1 mph ENE0.2 kmh ENE 1.7 mph2.7 kmh 30.43 in1030.5 mb 0.00 in0.0 mm 0.00 in0.0 mm 0.00 in0.0 mm
06:00 AM 55.4°F13.0°C 54.4°F12.4°C 96% 0.2 mph SSE0.3 kmh SSE 1.7 mph2.7 kmh 30.43 in1030.5 mb 0.00 in0.0 mm 0.00 in0.0 mm 0.00 in0.0 mm
06:05 AM 55.7°F13.2°C 54.8°F12.7°C 97% 0.2 mph ENE0.3 kmh ENE 1.7 mph2.7 kmh 30.42 in1030.1 mb 0.00 in0.0 mm 0.00 in0.0 mm 0.00 in0.0 mm
06:10 AM 55.9°F13.3°C 55.1°F12.8°C 97% 0.3 mph N0.5 kmh N 2.7 mph4.3 kmh 30.42 in1030.1 mb 0.00 in0.0 mm 0.00 in0.0 mm 0.00 in0.0 mm
06:15 AM 56.2°F13.4°C 55.3°F12.9°C 97% 0.2 mph SE0.3 kmh SE 1.1 mph1.8 kmh 30.43 in1030.5 mb 0.00 in0.0 mm 0.00 in0.0 mm 0.00 in0.0 mm
06:20 AM 56.4°F13.6°C 55.3°F12.9°C 96% 0.1 mph SE0.2 kmh SE 1.1 mph1.8 kmh 30.43 in1030.5 mb 0.00 in0.0 mm 0.00 in0.0 mm 0.00 in0.0 mm
06:25 AM 56.7°F13.7°C 55.4°F13.0°C 95% 1.1 mph SE1.8 kmh SE 2.7 mph4.3 kmh 30.44 in1030.8 mb 0.00 in0.0 mm 0.00 in0.0 mm 0.00 in0.0 mm
06:30 AM 57.0°F13.9°C 55.6°F13.1°C 95% 0.1 mph N0.2 kmh N 1.1 mph1.8 kmh 30.44 in1030.8 mb 0.00 in0.0 mm 0.00 in0.0 mm 0.00 in0.0 mm
06:35 AM 57.1°F13.9°C 55.4°F13.0°C 94% 0.8 mph SE1.3 kmh SE 2.7 mph4.3 kmh 30.44 in1030.8 mb 0.00 in0.0 mm 0.00 in0.0 mm 0.00 in0.0 mm
06:40 AM 57.5°F14.2°C 55.2°F12.9°C 92% 1.1 mph WNW1.8 kmh WNW 3.2 mph5.1 kmh 30.45 in1031.2 mb 0.00 in0.0 mm 0.00 in0.0 mm 0.00 in0.0 mm
06:45 AM 57.9°F14.4°C 55.3°F12.9°C 91% 1.5 mph E2.4 kmh E 3.2 mph5.1 kmh 30.45 in1031.2 mb 0.00 in0.0 mm 0.00 in0.0 mm 0.00 in0.0 mm
06:50 AM 58.1°F14.5°C 55.3°F12.9°C 90% 0.9 mph ENE1.4 kmh ENE 3.2 mph5.1 kmh 30.45 in1031.2 mb 0.00 in0.0 mm 0.00 in0.0 mm 0.00 in0.0 mm
06:55 AM 58.6°F14.8°C 55.3°F12.9°C 89% 1.2 mph NNE1.9 kmh NNE 3.2 mph5.1 kmh 30.45 in1031.2 mb 0.00 in0.0 mm 0.00 in0.0 mm 0.00 in0.0 mm
07:00 AM 58.8°F14.9°C 55.3°F12.9°C 88% 1.2 mph SSW1.9 kmh SSW 2.2 mph3.5 kmh 30.45 in1031.2 mb 0.00 in0.0 mm 0.00 in0.0 mm 0.00 in0.0 mm
07:05 AM 59.1°F15.1°C 55.3°F12.9°C 87% 1.3 mph S2.1 kmh S 3.2 mph5.1 kmh 30.46 in1031.5 mb 0.00 in0.0 mm 0.00 in0.0 mm 0.00 in0.0 mm
07:10 AM 59.5°F15.3°C 55.4°F13.0°C 86% 1.5 mph NNW2.4 kmh NNW 4.2 mph6.8 kmh 30.46 in1031.5 mb 0.00 in0.0 mm 0.00 in0.0 mm 0.00 in0.0 mm
07:15 AM 60.1°F15.6°C 55.2°F12.9°C 84% 1.2 mph SE1.9 kmh SE 4.2 mph6.8 kmh 30.46 in1031.5 mb 0.00 in0.0 mm 0.00 in0.0 mm 0.00 in0.0 mm
07:20 AM 61.1°F16.2°C 55.2°F12.9°C 81% 1.6 mph E2.6 kmh E 3.7 mph6.0 kmh 30.46 in1031.5 mb 0.00 in0.0 mm 0.00 in0.0 mm 0.00 in0.0 mm
07:25 AM 62.0°F16.7°C 55.3°F12.9°C 79% 1.6 mph NW2.6 kmh NW 3.2 mph5.1 kmh 30.47 in1031.8 mb 0.00 in0.0 mm 0.00 in0.0 mm 0.00 in0.0 mm
07:30 AM 62.5°F16.9°C 55.0°F12.8°C 76% 2.1 mph SE3.4 kmh SE 4.2 mph6.8 kmh 30.47 in1031.8 mb 0.00 in0.0 mm 0.00 in0.0 mm 0.00 in0.0 mm
07:35 AM 63.3°F17.4°C 55.1°F12.8°C 75% 2.5 mph SSE4.0 kmh SSE 7.8 mph12.6 kmh 30.47 in1031.8 mb 0.00 in0.0 mm 0.00 in0.0 mm 0.00 in0.0 mm
07:40 AM 63.3°F17.4°C 54.8°F12.7°C 74% 3.1 mph SSW5.0 kmh SSW 5.3 mph8.5 kmh 30.47 in1031.8 mb 0.00 in0.0 mm 0.00 in0.0 mm 0.00 in0.0 mm
07:45 AM 63.4°F17.4°C 54.4°F12.4°C 72% 3.0 mph S4.8 kmh S 4.7 mph7.6 kmh 30.47 in1031.8 mb 0.00 in0.0 mm 0.00 in0.0 mm 0.00 in0.0 mm
07:50 AM 63.8°F17.7°C 54.4°F12.4°C 71% 2.7 mph SE4.3 kmh SE 6.3 mph10.1 kmh 30.47 in1031.8 mb 0.00 in0.0 mm 0.00 in0.0 mm 0.00 in0.0 mm
07:55 AM 64.0°F17.8°C 54.4°F12.4°C 71% 2.1 mph ENE3.4 kmh ENE 3.2 mph5.1 kmh 30.48 in1032.2 mb 0.00 in0.0 mm 0.00 in0.0 mm 0.00 in0.0 mm
08:00 AM 64.3°F17.9°C 54.3°F12.4°C 70% 2.7 mph SE4.3 kmh SE 4.7 mph7.6 kmh 30.48 in1032.2 mb 0.00 in0.0 mm 0.00 in0.0 mm 0.00 in0.0 mm
08:05 AM 64.5°F18.1°C 54.1°F12.3°C 69% 3.4 mph SE5.5 kmh SE 5.3 mph8.5 kmh 30.48 in1032.2 mb 0.00 in0.0 mm 0.00 in0.0 mm 0.00 in0.0 mm
08:10 AM 64.5°F18.1°C 54.1°F12.3°C 69% 2.3 mph SSE3.7 kmh SSE 4.7 mph7.6 kmh 30.48 in1032.2 mb 0.00 in0.0 mm 0.00 in0.0 mm 0.00 in0.0 mm
08:15 AM 64.5°F18.1°C 54.1°F12.3°C 69% 2.9 mph NE4.7 kmh NE 5.8 mph9.3 kmh 30.48 in1032.2 mb 0.00 in0.0 mm 0.00 in0.0 mm 0.00 in0.0 mm
08:20 AM 64.5°F18.1°C 54.1°F12.3°C 69% 2.9 mph NNE4.7 kmh NNE 6.8 mph10.9 kmh 30.48 in1032.2 mb 0.00 in0.0 mm 0.00 in0.0 mm 0.00 in0.0 mm
08:25 AM 64.8°F18.2°C 53.8°F12.1°C 67% 3.0 mph SSE4.8 kmh SSE 5.3 mph8.5 kmh 30.49 in1032.5 mb 0.00 in0.0 mm 0.00 in0.0 mm 0.00 in0.0 mm
08:30 AM 65.2°F18.4°C 54.0°F12.2°C 67% 2.7 mph N4.3 kmh N 4.7 mph7.6 kmh 30.49 in1032.5 mb 0.00 in0.0 mm 0.00 in0.0 mm 0.00 in0.0 mm
08:35 AM 65.5°F18.6°C 54.2°F12.3°C 67% 2.8 mph SSE4.5 kmh SSE 4.7 mph7.6 kmh 30.49 in1032.5 mb 0.00 in0.0 mm 0.00 in0.0 mm 0.00 in0.0 mm
08:40 AM 65.8°F18.8°C 54.5°F12.5°C 67% 1.8 mph SSE2.9 kmh SSE 3.7 mph6.0 kmh 30.50 in1032.8 mb 0.00 in0.0 mm 0.00 in0.0 mm 0.00 in0.0 mm
08:45 AM 65.8°F18.8°C 54.3°F12.4°C 66% 2.9 mph ESE4.7 kmh ESE 5.8 mph9.3 kmh 30.50 in1032.8 mb 0.00 in0.0 mm 0.00 in0.0 mm 0.00 in0.0 mm
08:50 AM 65.5°F18.6°C 53.8°F12.1°C 66% 2.4 mph S3.9 kmh S 4.2 mph6.8 kmh 30.50 in1032.8 mb 0.00 in0.0 mm 0.00 in0.0 mm 0.00 in0.0 mm
08:55 AM 66.0°F18.9°C 54.0°F12.2°C 65% 2.3 mph ESE3.7 kmh ESE 7.8 mph12.6 kmh 30.50 in1032.8 mb 0.00 in0.0 mm 0.00 in0.0 mm 0.00 in0.0 mm
09:00 AM 66.6°F19.2°C 54.3°F12.4°C 65% 2.5 mph SE4.0 kmh SE 5.3 mph8.5 kmh 30.50 in1032.8 mb 0.00 in0.0 mm 0.00 in0.0 mm 0.00 in0.0 mm
09:05 AM 66.8°F19.3°C 53.9°F12.2°C 63% 2.4 mph SE3.9 kmh SE 5.3 mph8.5 kmh 30.50 in1032.8 mb 0.00 in0.0 mm 0.00 in0.0 mm 0.00 in0.0 mm
09:10 AM 67.4°F19.7°C 54.3°F12.4°C 63% 2.7 mph S4.3 kmh S 5.3 mph8.5 kmh 30.50 in1032.8 mb 0.00 in0.0 mm 0.00 in0.0 mm 0.00 in0.0 mm
09:15 AM 67.4°F19.7°C 54.0°F12.2°C 62% 3.3 mph WNW5.3 kmh WNW 5.8 mph9.3 kmh 30.50 in1032.8 mb 0.00 in0.0 mm 0.00 in0.0 mm 0.00 in0.0 mm
09:20 AM 67.8°F19.9°C 54.3°F12.4°C 62% 2.3 mph S3.7 kmh S 4.7 mph7.6 kmh 30.50 in1032.8 mb 0.00 in0.0 mm 0.00 in0.0 mm 0.00 in0.0 mm
09:25 AM 68.1°F20.1°C 54.3°F12.4°C 61% 3.0 mph S4.8 kmh S 5.8 mph9.3 kmh 30.49 in1032.5 mb 0.00 in0.0 mm 0.00 in0.0 mm 0.00 in0.0 mm
09:30 AM 68.6°F20.3°C 54.5°F12.5°C 61% 2.6 mph S4.2 kmh S 5.8 mph9.3 kmh 30.49 in1032.5 mb 0.00 in0.0 mm 0.00 in0.0 mm 0.00 in0.0 mm
09:35 AM 68.8°F20.4°C 54.2°F12.3°C 60% 3.3 mph SE5.3 kmh SE 5.3 mph8.5 kmh 30.49 in1032.5 mb 0.00 in0.0 mm 0.00 in0.0 mm 0.00 in0.0 mm
09:40 AM 69.4°F20.8°C 54.6°F12.6°C 59% 3.5 mph SSE5.6 kmh SSE 5.8 mph9.3 kmh 30.50 in1032.8 mb 0.00 in0.0 mm 0.00 in0.0 mm 0.00 in0.0 mm
09:45 AM 69.3°F20.7°C 54.3°F12.4°C 59% 4.1 mph S6.6 kmh S 5.8 mph9.3 kmh 30.50 in1032.8 mb 0.00 in0.0 mm 0.00 in0.0 mm 0.00 in0.0 mm
09:50 AM 69.6°F20.9°C 54.4°F12.4°C 58% 3.8 mph ENE6.1 kmh ENE 6.8 mph10.9 kmh 30.50 in1032.8 mb 0.00 in0.0 mm 0.00 in0.0 mm 0.00 in0.0 mm
09:55 AM 69.8°F21.0°C 54.5°F12.5°C 58% 3.1 mph SE5.0 kmh SE 4.7 mph7.6 kmh 30.50 in1032.8 mb 0.00 in0.0 mm 0.00 in0.0 mm 0.00 in0.0 mm
10:00 AM 70.2°F21.2°C 55.0°F12.8°C 58% 3.5 mph S5.6 kmh S 6.8 mph10.9 kmh 30.50 in1032.8 mb 0.00 in0.0 mm 0.00 in0.0 mm 0.00 in0.0 mm
10:05 AM 70.5°F21.4°C 54.4°F12.4°C 57% 3.8 mph S6.1 kmh S 6.3 mph10.1 kmh 30.50 in1032.8 mb 0.00 in0.0 mm 0.00 in0.0 mm 0.00 in0.0 mm
10:10 AM 70.4°F21.3°C 54.7°F12.6°C 58% 3.7 mph S6.0 kmh S 5.3 mph8.5 kmh 30.50 in1032.8 mb 0.00 in0.0 mm 0.00 in0.0 mm 0.00 in0.0 mm
10:15 AM 70.5°F21.4°C 54.5°F12.5°C 57% 3.5 mph SSW5.6 kmh SSW 6.3 mph10.1 kmh 30.50 in1032.8 mb 0.00 in0.0 mm 0.00 in0.0 mm 0.00 in0.0 mm
10:20 AM 70.7°F21.5°C 54.5°F12.5°C 57% 3.5 mph S5.6 kmh S 4.7 mph7.6 kmh 30.50 in1032.8 mb 0.00 in0.0 mm 0.00 in0.0 mm 0.00 in0.0 mm
10:25 AM 70.9°F21.6°C 55.0°F12.8°C 57% 3.1 mph SE5.0 kmh SE 4.7 mph7.6 kmh 30.50 in1032.8 mb 0.00 in0.0 mm 0.00 in0.0 mm 0.00 in0.0 mm
10:30 AM 70.8°F21.6°C 54.2°F12.3°C 56% 3.5 mph S5.6 kmh S 8.9 mph14.3 kmh 30.50 in1032.8 mb 0.00 in0.0 mm 0.00 in0.0 mm 0.00 in0.0 mm
10:35 AM 70.8°F21.6°C 55.0°F12.8°C 57% 3.7 mph SSE6.0 kmh SSE 7.3 mph11.7 kmh 30.50 in1032.8 mb 0.00 in0.0 mm 0.00 in0.0 mm 0.00 in0.0 mm
10:40 AM 71.4°F21.9°C 55.3°F12.9°C 57% 3.5 mph SE5.6 kmh SE 5.8 mph9.3 kmh 30.50 in1032.8 mb 0.00 in0.0 mm 0.00 in0.0 mm 0.00 in0.0 mm
10:45 AM 71.8°F22.1°C 55.7°F13.2°C 57% 3.1 mph S5.0 kmh S 4.2 mph6.8 kmh 30.50 in1032.8 mb 0.00 in0.0 mm 0.00 in0.0 mm 0.00 in0.0 mm
10:50 AM 71.0°F21.7°C 55.0°F12.8°C 57% 3.7 mph E6.0 kmh E 6.8 mph10.9 kmh 30.50 in1032.8 mb 0.00 in0.0 mm 0.00 in0.0 mm 0.00 in0.0 mm
10:55 AM 70.9°F21.6°C 55.3°F12.9°C 58% 3.1 mph SE5.0 kmh SE 5.8 mph9.3 kmh 30.50 in1032.8 mb 0.00 in0.0 mm 0.00 in0.0 mm 0.00 in0.0 mm
11:00 AM 71.5°F21.9°C 55.5°F13.1°C 57% 3.6 mph SE5.8 kmh SE 5.8 mph9.3 kmh 30.50 in1032.8 mb 0.00 in0.0 mm 0.00 in0.0 mm 0.00 in0.0 mm
11:05 AM 71.4°F21.9°C 55.3°F12.9°C 57% 3.0 mph S4.8 kmh S 6.3 mph10.1 kmh 30.50 in1032.8 mb 0.00 in0.0 mm 0.00 in0.0 mm 0.00 in0.0 mm
11:10 AM 72.7°F22.6°C 55.8°F13.2°C 56% 2.5 mph WNW4.0 kmh WNW 6.8 mph10.9 kmh 30.50 in1032.8 mb 0.00 in0.0 mm 0.00 in0.0 mm 0.00 in0.0 mm
11:15 AM 73.1°F22.8°C 55.7°F13.2°C 54% 2.4 mph E3.9 kmh E 5.3 mph8.5 kmh 30.50 in1032.8 mb 0.00 in0.0 mm 0.00 in0.0 mm 0.00 in0.0 mm
11:20 AM 72.3°F22.4°C 54.5°F12.5°C 54% 4.0 mph SE6.4 kmh SE 6.3 mph10.1 kmh 30.50 in1032.8 mb 0.00 in0.0 mm 0.00 in0.0 mm 0.00 in0.0 mm
11:25 AM 72.6°F22.6°C 55.4°F13.0°C 55% 2.9 mph S4.7 kmh S 4.7 mph7.6 kmh 30.50 in1032.8 mb 0.00 in0.0 mm 0.00 in0.0 mm 0.00 in0.0 mm
11:30 AM 73.1°F22.8°C 56.2°F13.4°C 56% 2.8 mph SSE4.5 kmh SSE 7.8 mph12.6 kmh 30.50 in1032.8 mb 0.00 in0.0 mm 0.00 in0.0 mm 0.00 in0.0 mm
11:35 AM 73.1°F22.8°C 56.2°F13.4°C 56% 3.3 mph SSE5.3 kmh SSE 4.7 mph7.6 kmh 30.50 in1032.8 mb 0.00 in0.0 mm 0.00 in0.0 mm 0.00 in0.0 mm
11:40 AM 72.7°F22.6°C 55.9°F13.3°C 56% 3.5 mph ESE5.6 kmh ESE 7.3 mph11.7 kmh 30.50 in1032.8 mb 0.00 in0.0 mm 0.00 in0.0 mm 0.00 in0.0 mm
11:45 AM 72.7°F22.6°C 56.1°F13.4°C 56% 2.9 mph SSW4.7 kmh SSW 4.7 mph7.6 kmh 30.50 in1032.8 mb 0.00 in0.0 mm 0.00 in0.0 mm 0.00 in0.0 mm
11:50 AM 72.6°F22.6°C 56.1°F13.4°C 56% 2.7 mph 4.3 kmh 7.8 mph12.6 kmh 30.50 in1032.8 mb 0.00 in0.0 mm 0.00 in0.0 mm 0.00 in0.0 mm
11:55 AM 73.2°F22.9°C 56.0°F13.3°C 55% 2.6 mph W4.2 kmh W 4.7 mph7.6 kmh 30.50 in1032.8 mb 0.00 in0.0 mm 0.00 in0.0 mm 0.00 in0.0 mm
12:00 PM 73.3°F22.9°C 56.2°F13.4°C 55% 3.0 mph ESE4.8 kmh ESE 5.3 mph8.5 kmh 30.50 in1032.8 mb 0.00 in0.0 mm 0.00 in0.0 mm 0.00 in0.0 mm
12:05 PM 73.6°F23.1°C 56.5°F13.6°C 55% 2.6 mph SW4.2 kmh SW 3.7 mph6.0 kmh 30.50 in1032.8 mb 0.00 in0.0 mm 0.00 in0.0 mm 0.00 in0.0 mm
12:10 PM 73.2°F22.9°C 56.2°F13.4°C 55% 2.8 mph SSE4.5 kmh SSE 5.3 mph8.5 kmh 30.50 in1032.8 mb 0.00 in0.0 mm 0.00 in0.0 mm 0.00 in0.0 mm
12:15 PM 73.2°F22.9°C 55.1°F12.8°C 53% 3.3 mph WSW5.3 kmh WSW 6.3 mph10.1 kmh 30.50 in1032.8 mb 0.00 in0.0 mm 0.00 in0.0 mm 0.00 in0.0 mm
12:20 PM 73.4°F23.0°C 54.9°F12.7°C 52% 3.6 mph SSE5.8 kmh SSE 5.8 mph9.3 kmh 30.50 in1032.8 mb 0.00 in0.0 mm 0.00 in0.0 mm 0.00 in0.0 mm
12:25 PM 73.5°F23.1°C 55.3°F12.9°C 53% 3.2 mph S5.1 kmh S 5.3 mph8.5 kmh 30.50 in1032.8 mb 0.00 in0.0 mm 0.00 in0.0 mm 0.00 in0.0 mm
12:30 PM 73.7°F23.2°C 55.7°F13.2°C 54% 2.6 mph SE4.2 kmh SE 4.7 mph7.6 kmh 30.50 in1032.8 mb 0.00 in0.0 mm 0.00 in0.0 mm 0.00 in0.0 mm
12:35 PM 73.7°F23.2°C 55.4°F13.0°C 53% 2.9 mph SE4.7 kmh SE 4.7 mph7.6 kmh 30.50 in1032.8 mb 0.00 in0.0 mm 0.00 in0.0 mm 0.00 in0.0 mm
12:40 PM 73.9°F23.3°C 55.3°F12.9°C 52% 3.0 mph SSE4.8 kmh SSE 4.7 mph7.6 kmh 30.50 in1032.8 mb 0.00 in0.0 mm 0.00 in0.0 mm 0.00 in0.0 mm
12:45 PM 74.0°F23.3°C 56.2°F13.4°C 54% 2.2 mph SE3.5 kmh SE 4.2 mph6.8 kmh 30.50 in1032.8 mb 0.00 in0.0 mm 0.00 in0.0 mm 0.00 in0.0 mm
12:50 PM 74.0°F23.3°C 55.7°F13.2°C 53% 3.2 mph SSE5.1 kmh SSE 5.8 mph9.3 kmh 30.50 in1032.8 mb 0.00 in0.0 mm 0.00 in0.0 mm 0.00 in0.0 mm
12:55 PM 73.3°F22.9°C 55.9°F13.3°C 54% 3.3 mph SSW5.3 kmh SSW 5.8 mph9.3 kmh 30.50 in1032.8 mb 0.00 in0.0 mm 0.00 in0.0 mm 0.00 in0.0 mm
01:00 PM 74.1°F23.4°C 56.7°F13.7°C 55% 3.2 mph ESE5.1 kmh ESE 4.7 mph7.6 kmh 30.50 in1032.8 mb 0.00 in0.0 mm 0.00 in0.0 mm 0.00 in0.0 mm
01:05 PM 74.2°F23.4°C 55.8°F13.2°C 53% 3.0 mph ESE4.8 kmh ESE 5.8 mph9.3 kmh 30.50 in1032.8 mb 0.00 in0.0 mm 0.00 in0.0 mm 0.00 in0.0 mm
01:10 PM 73.4°F23.0°C 55.4°F13.0°C 53% 3.0 mph SSE4.8 kmh SSE 6.8 mph10.9 kmh 30.50 in1032.8 mb 0.00 in0.0 mm 0.00 in0.0 mm 0.00 in0.0 mm
01:15 PM 73.6°F23.1°C 55.3°F12.9°C 53% 2.6 mph S4.2 kmh S 4.7 mph7.6 kmh 30.50 in1032.8 mb 0.00 in0.0 mm 0.00 in0.0 mm 0.00 in0.0 mm
01:20 PM 73.0°F22.8°C 55.5°F13.1°C 54% 2.1 mph SSW3.4 kmh SSW 3.2 mph5.1 kmh 30.50 in1032.8 mb 0.00 in0.0 mm 0.00 in0.0 mm 0.00 in0.0 mm
01:25 PM 73.6°F23.1°C 55.8°F13.2°C 54% 3.3 mph WSW5.3 kmh WSW 6.3 mph10.1 kmh 30.50 in1032.8 mb 0.00 in0.0 mm 0.00 in0.0 mm 0.00 in0.0 mm
01:30 PM 72.6°F22.6°C 55.8°F13.2°C 56% 2.6 mph S4.2 kmh S 5.8 mph9.3 kmh 30.50 in1032.8 mb 0.00 in0.0 mm 0.00 in0.0 mm 0.00 in0.0 mm
01:35 PM 73.2°F22.9°C 55.8°F13.2°C 54% 3.2 mph N5.1 kmh N 4.7 mph7.6 kmh 30.50 in1032.8 mb 0.00 in0.0 mm 0.00 in0.0 mm 0.00 in0.0 mm
01:40 PM 73.7°F23.2°C 55.4°F13.0°C 53% 3.0 mph 4.8 kmh 5.8 mph9.3 kmh 30.49 in1032.5 mb 0.00 in0.0 mm 0.00 in0.0 mm 0.00 in0.0 mm
01:45 PM 73.5°F23.1°C 55.2°F12.9°C 53% 2.6 mph S4.2 kmh S 4.7 mph7.6 kmh 30.49 in1032.5 mb 0.00 in0.0 mm 0.00 in0.0 mm 0.00 in0.0 mm
01:50 PM 74.2°F23.4°C 56.0°F13.3°C 53% 2.9 mph WSW4.7 kmh WSW 5.3 mph8.5 kmh 30.49 in1032.5 mb 0.00 in0.0 mm 0.00 in0.0 mm 0.00 in0.0 mm
01:55 PM 73.6°F23.1°C 55.8°F13.2°C 54% 3.1 mph SE5.0 kmh SE 5.3 mph8.5 kmh 30.49 in1032.5 mb 0.00 in0.0 mm 0.00 in0.0 mm 0.00 in0.0 mm
02:00 PM 74.3°F23.5°C 56.1°F13.4°C 53% 2.4 mph ESE3.9 kmh ESE 3.2 mph5.1 kmh 30.49 in1032.5 mb 0.00 in0.0 mm 0.00 in0.0 mm 0.00 in0.0 mm
02:05 PM 74.2°F23.4°C 56.5°F13.6°C 54% 2.3 mph SSE3.7 kmh SSE 3.7 mph6.0 kmh 30.49 in1032.5 mb 0.00 in0.0 mm 0.00 in0.0 mm 0.00 in0.0 mm
02:10 PM 73.9°F23.3°C 56.7°F13.7°C 55% 2.6 mph SW4.2 kmh SW 5.8 mph9.3 kmh 30.49 in1032.5 mb 0.00 in0.0 mm 0.00 in0.0 mm 0.00 in0.0 mm
02:15 PM 73.8°F23.2°C 56.5°F13.6°C 55% 2.4 mph NW3.9 kmh NW 4.2 mph6.8 kmh 30.49 in1032.5 mb 0.00 in0.0 mm 0.00 in0.0 mm 0.00 in0.0 mm
02:20 PM 74.0°F23.3°C 56.6°F13.7°C 55% 2.7 mph SW4.3 kmh SW 5.8 mph9.3 kmh 30.49 in1032.5 mb 0.00 in0.0 mm 0.00 in0.0 mm 0.00 in0.0 mm
02:25 PM 72.8°F22.7°C 55.3°F12.9°C 54% 2.3 mph SSE3.7 kmh SSE 4.7 mph7.6 kmh 30.49 in1032.5 mb 0.00 in0.0 mm 0.00 in0.0 mm 0.00 in0.0 mm
02:30 PM 71.7°F22.1°C 55.4°F13.0°C 56% 2.9 mph SSE4.7 kmh SSE 4.2 mph6.8 kmh 30.49 in1032.5 mb 0.00 in0.0 mm 0.00 in0.0 mm 0.00 in0.0 mm
02:35 PM 72.2°F22.3°C 56.1°F13.4°C 57% 1.7 mph SSE2.7 kmh SSE 5.3 mph8.5 kmh 30.49 in1032.5 mb 0.00 in0.0 mm 0.00 in0.0 mm 0.00 in0.0 mm
02:40 PM 73.4°F23.0°C 57.0°F13.9°C 57% 2.4 mph SE3.9 kmh SE 4.2 mph6.8 kmh 30.49 in1032.5 mb 0.00 in0.0 mm 0.00 in0.0 mm 0.00 in0.0 mm
02:45 PM 73.5°F23.1°C 56.6°F13.7°C 56% 2.4 mph SE3.9 kmh SE 6.3 mph10.1 kmh 30.49 in1032.5 mb 0.00 in0.0 mm 0.00 in0.0 mm 0.00 in0.0 mm
02:50 PM 72.9°F22.7°C 56.9°F13.8°C 57% 2.4 mph NE3.9 kmh NE 3.7 mph6.0 kmh 30.49 in1032.5 mb 0.00 in0.0 mm 0.00 in0.0 mm 0.00 in0.0 mm
02:55 PM 72.2°F22.3°C 56.4°F13.6°C 58% 2.3 mph ESE3.7 kmh ESE 5.8 mph9.3 kmh 30.49 in1032.5 mb 0.00 in0.0 mm 0.00 in0.0 mm 0.00 in0.0 mm
03:00 PM 72.5°F22.5°C 57.0°F13.9°C 58% 2.6 mph SE4.2 kmh SE 4.7 mph7.6 kmh 30.49 in1032.5 mb 0.00 in0.0 mm 0.00 in0.0 mm 0.00 in0.0 mm
03:05 PM 71.2°F21.8°C 56.9°F13.8°C 61% 2.6 mph SSW4.2 kmh SSW 5.3 mph8.5 kmh 30.49 in1032.5 mb 0.00 in0.0 mm 0.00 in0.0 mm 0.00 in0.0 mm
03:10 PM 70.7°F21.5°C 56.7°F13.7°C 61% 3.4 mph S5.5 kmh S 6.8 mph10.9 kmh 30.49 in1032.5 mb 0.00 in0.0 mm 0.00 in0.0 mm 0.00 in0.0 mm
03:15 PM 70.2°F21.2°C 56.8°F13.8°C 62% 2.3 mph SSW3.7 kmh SSW 3.7 mph6.0 kmh 30.49 in1032.5 mb 0.00 in0.0 mm 0.00 in0.0 mm 0.00 in0.0 mm
03:20 PM 70.9°F21.6°C 56.9°F13.8°C 61% 2.9 mph E4.7 kmh E 5.3 mph8.5 kmh 30.49 in1032.5 mb 0.00 in0.0 mm 0.00 in0.0 mm 0.00 in0.0 mm
03:25 PM 70.9°F21.6°C 56.5°F13.6°C 60% 2.5 mph S4.0 kmh S 3.7 mph6.0 kmh 30.49 in1032.5 mb 0.00 in0.0 mm 0.00 in0.0 mm 0.00 in0.0 mm
03:30 PM 69.6°F20.9°C 55.5°F13.1°C 61% 2.7 mph S4.3 kmh S 6.8 mph10.9 kmh 30.49 in1032.5 mb 0.00 in0.0 mm 0.00 in0.0 mm 0.00 in0.0 mm
03:35 PM 69.5°F20.8°C 55.3°F12.9°C 61% 1.7 mph W2.7 kmh W 3.2 mph5.1 kmh 30.49 in1032.5 mb 0.00 in0.0 mm 0.00 in0.0 mm 0.00 in0.0 mm
03:40 PM 69.5°F20.8°C 54.7°F12.6°C 59% 2.2 mph SSE3.5 kmh SSE 5.3 mph8.5 kmh 30.49 in1032.5 mb 0.00 in0.0 mm 0.00 in0.0 mm 0.00 in0.0 mm
03:45 PM 69.3°F20.7°C 54.0°F12.2°C 58% 2.6 mph S4.2 kmh S 3.7 mph6.0 kmh 30.49 in1032.5 mb 0.00 in0.0 mm 0.00 in0.0 mm 0.00 in0.0 mm
03:50 PM 69.3°F20.7°C 53.6°F12.0°C 57% 2.3 mph SSW3.7 kmh SSW 4.2 mph6.8 kmh 30.49 in1032.5 mb 0.00 in0.0 mm 0.00 in0.0 mm 0.00 in0.0 mm
03:55 PM 69.4°F20.8°C 53.8°F12.1°C 58% 2.3 mph S3.7 kmh S 5.8 mph9.3 kmh 30.49 in1032.5 mb 0.00 in0.0 mm 0.00 in0.0 mm 0.00 in0.0 mm
04:00 PM 69.3°F20.7°C 53.1°F11.7°C 56% 3.0 mph ESE4.8 kmh ESE 4.2 mph6.8 kmh 30.49 in1032.5 mb 0.00 in0.0 mm 0.00 in0.0 mm 0.00 in0.0 mm
04:05 PM 69.1°F20.6°C 52.9°F11.6°C 56% 2.6 mph SE4.2 kmh SE 5.3 mph8.5 kmh 30.49 in1032.5 mb 0.00 in0.0 mm 0.00 in0.0 mm 0.00 in0.0 mm
04:10 PM 69.0°F20.6°C 53.1°F11.7°C 57% 2.5 mph SSE4.0 kmh SSE 3.7 mph6.0 kmh 30.49 in1032.5 mb 0.00 in0.0 mm 0.00 in0.0 mm 0.00 in0.0 mm
04:15 PM 68.8°F20.4°C 53.0°F11.7°C 57% 1.9 mph SSW3.1 kmh SSW 4.7 mph7.6 kmh 30.49 in1032.5 mb 0.00 in0.0 mm 0.00 in0.0 mm 0.00 in0.0 mm
04:20 PM 68.7°F20.4°C 53.3°F11.8°C 58% 1.8 mph SW2.9 kmh SW 3.7 mph6.0 kmh 30.49 in1032.5 mb 0.00 in0.0 mm 0.00 in0.0 mm 0.00 in0.0 mm
04:25 PM 68.6°F20.3°C 53.2°F11.8°C 58% 2.7 mph SSE4.3 kmh SSE 3.7 mph6.0 kmh 30.49 in1032.5 mb 0.00 in0.0 mm 0.00 in0.0 mm 0.00 in0.0 mm
04:30 PM 68.7°F20.4°C 52.9°F11.6°C 57% 2.0 mph SSW3.2 kmh SSW 5.3 mph8.5 kmh 30.49 in1032.5 mb 0.00 in0.0 mm 0.00 in0.0 mm 0.00 in0.0 mm
04:35 PM 68.5°F20.3°C 52.8°F11.6°C 57% 2.8 mph S4.5 kmh S 4.7 mph7.6 kmh 30.49 in1032.5 mb 0.00 in0.0 mm 0.00 in0.0 mm 0.00 in0.0 mm
04:40 PM 68.4°F20.2°C 52.1°F11.2°C 56% 2.0 mph ENE3.2 kmh ENE 3.2 mph5.1 kmh 30.49 in1032.5 mb 0.00 in0.0 mm 0.00 in0.0 mm 0.00 in0.0 mm
04:45 PM 68.4°F20.2°C 52.1°F11.2°C 56% 2.0 mph S3.2 kmh S 3.2 mph5.1 kmh 30.49 in1032.5 mb 0.00 in0.0 mm 0.00 in0.0 mm 0.00 in0.0 mm
04:50 PM 68.4°F20.2°C 52.3°F11.3°C 57% 2.3 mph SSW3.7 kmh SSW 4.7 mph7.6 kmh 30.50 in1032.8 mb 0.00 in0.0 mm 0.00 in0.0 mm 0.00 in0.0 mm
04:55 PM 68.0°F20.0°C 52.2°F11.2°C 57% 2.4 mph S3.9 kmh S 4.7 mph7.6 kmh 30.50 in1032.8 mb 0.00 in0.0 mm 0.00 in0.0 mm 0.00 in0.0 mm
05:00 PM 68.4°F20.2°C 52.5°F11.4°C 57% 2.0 mph NW3.2 kmh NW 4.7 mph7.6 kmh 30.50 in1032.8 mb 0.00 in0.0 mm 0.00 in0.0 mm 0.00 in0.0 mm
05:05 PM 68.1°F20.1°C 51.9°F11.1°C 56% 2.2 mph S3.5 kmh S 3.2 mph5.1 kmh 30.50 in1032.8 mb 0.00 in0.0 mm 0.00 in0.0 mm 0.00 in0.0 mm
05:10 PM 67.6°F19.8°C 51.4°F10.8°C 56% 2.1 mph SE3.4 kmh SE 4.2 mph6.8 kmh 30.50 in1032.8 mb 0.00 in0.0 mm 0.00 in0.0 mm 0.00 in0.0 mm
05:15 PM 67.2°F19.6°C 51.7°F10.9°C 57% 2.2 mph SE3.5 kmh SE 4.7 mph7.6 kmh 30.49 in1032.5 mb 0.00 in0.0 mm 0.00 in0.0 mm 0.00 in0.0 mm
05:20 PM 66.8°F19.3°C 51.9°F11.1°C 59% 2.4 mph SSE3.9 kmh SSE 4.2 mph6.8 kmh 30.49 in1032.5 mb 0.00 in0.0 mm 0.00 in0.0 mm 0.00 in0.0 mm
05:25 PM 66.6°F19.2°C 52.1°F11.2°C 60% 1.6 mph SE2.6 kmh SE 3.7 mph6.0 kmh 30.49 in1032.5 mb 0.00 in0.0 mm 0.00 in0.0 mm 0.00 in0.0 mm
05:30 PM 66.5°F19.2°C 52.2°F11.2°C 60% 2.2 mph SSW3.5 kmh SSW 4.7 mph7.6 kmh 30.49 in1032.5 mb 0.00 in0.0 mm 0.00 in0.0 mm 0.00 in0.0 mm
05:35 PM 66.4°F19.1°C 52.1°F11.2°C 60% 1.7 mph SW2.7 kmh SW 4.7 mph7.6 kmh 30.49 in1032.5 mb 0.00 in0.0 mm 0.00 in0.0 mm 0.00 in0.0 mm
05:40 PM 66.2°F19.0°C 52.1°F11.2°C 60% 1.9 mph SSE3.1 kmh SSE 7.3 mph11.7 kmh 30.49 in1032.5 mb 0.00 in0.0 mm 0.00 in0.0 mm 0.00 in0.0 mm
05:45 PM 66.0°F18.9°C 52.2°F11.2°C 61% 1.6 mph E2.6 kmh E 4.7 mph7.6 kmh 30.48 in1032.2 mb 0.00 in0.0 mm 0.00 in0.0 mm 0.00 in0.0 mm
05:50 PM 65.8°F18.8°C 52.3°F11.3°C 62% 0.8 mph S1.3 kmh S 1.7 mph2.7 kmh 30.48 in1032.2 mb 0.00 in0.0 mm 0.00 in0.0 mm 0.00 in0.0 mm
05:55 PM 65.6°F18.7°C 52.4°F11.3°C 62% 1.5 mph SSE2.4 kmh SSE 4.2 mph6.8 kmh 30.49 in1032.5 mb 0.00 in0.0 mm 0.00 in0.0 mm 0.00 in0.0 mm
06:00 PM 65.5°F18.6°C 52.6°F11.4°C 63% 1.5 mph SE2.4 kmh SE 3.2 mph5.1 kmh 30.49 in1032.5 mb 0.00 in0.0 mm 0.00 in0.0 mm 0.00 in0.0 mm
06:05 PM 65.3°F18.5°C 52.3°F11.3°C 63% 1.0 mph S1.6 kmh S 3.2 mph5.1 kmh 30.48 in1032.2 mb 0.00 in0.0 mm 0.00 in0.0 mm 0.00 in0.0 mm
06:10 PM 64.9°F18.3°C 51.2°F10.7°C 61% 1.3 mph S2.1 kmh S 2.7 mph4.3 kmh 30.48 in1032.2 mb 0.00 in0.0 mm 0.00 in0.0 mm 0.00 in0.0 mm
06:15 PM 64.7°F18.2°C 51.2°F10.7°C 62% 1.9 mph S3.1 kmh S 4.7 mph7.6 kmh 30.48 in1032.2 mb 0.00 in0.0 mm 0.00 in0.0 mm 0.00 in0.0 mm
06:20 PM 64.4°F18.0°C 50.9°F10.5°C 62% 2.3 mph SE3.7 kmh SE 3.2 mph5.1 kmh 30.48 in1032.2 mb 0.00 in0.0 mm 0.00 in0.0 mm 0.00 in0.0 mm
06:25 PM 64.3°F17.9°C 50.7°F10.4°C 61% 0.9 mph S1.4 kmh S 2.7 mph4.3 kmh 30.48 in1032.2 mb 0.00 in0.0 mm 0.00 in0.0 mm 0.00 in0.0 mm
06:30 PM 64.2°F17.9°C 50.9°F10.5°C 62% 1.2 mph SW1.9 kmh SW 3.7 mph6.0 kmh 30.48 in1032.2 mb 0.00 in0.0 mm 0.00 in0.0 mm 0.00 in0.0 mm
06:35 PM 64.1°F17.8°C 50.8°F10.4°C 62% 1.2 mph S1.9 kmh S 2.7 mph4.3 kmh 30.48 in1032.2 mb 0.00 in0.0 mm 0.00 in0.0 mm 0.00 in0.0 mm
06:40 PM 63.9°F17.7°C 50.6°F10.3°C 62% 1.6 mph S2.6 kmh S 4.7 mph7.6 kmh 30.48 in1032.2 mb 0.00 in0.0 mm 0.00 in0.0 mm 0.00 in0.0 mm
06:45 PM 63.7°F17.6°C 50.4°F10.2°C 62% 1.2 mph S1.9 kmh S 2.2 mph3.5 kmh 30.48 in1032.2 mb 0.00 in0.0 mm 0.00 in0.0 mm 0.00 in0.0 mm
06:50 PM 63.5°F17.5°C 50.2°F10.1°C 62% 1.6 mph E2.6 kmh E 4.2 mph6.8 kmh 30.47 in1031.8 mb 0.00 in0.0 mm 0.00 in0.0 mm 0.00 in0.0 mm
06:55 PM 63.3°F17.4°C 50.1°F10.1°C 62% 1.4 mph SSE2.3 kmh SSE 2.7 mph4.3 kmh 30.47 in1031.8 mb 0.00 in0.0 mm 0.00 in0.0 mm 0.00 in0.0 mm
07:00 PM 63.3°F17.4°C 50.1°F10.1°C 62% 0.9 mph S1.4 kmh S 2.7 mph4.3 kmh 30.48 in1032.2 mb 0.00 in0.0 mm 0.00 in0.0 mm 0.00 in0.0 mm
07:05 PM 63.3°F17.4°C 50.2°F10.1°C 62% 0.5 mph S0.8 kmh S 2.2 mph3.5 kmh 30.48 in1032.2 mb 0.00 in0.0 mm 0.00 in0.0 mm 0.00 in0.0 mm
07:10 PM 63.1°F17.3°C 50.7°F10.4°C 64% 1.5 mph S2.4 kmh S 3.2 mph5.1 kmh 30.48 in1032.2 mb 0.00 in0.0 mm 0.00 in0.0 mm 0.00 in0.0 mm
07:15 PM 63.1°F17.3°C 51.1°F10.6°C 65% 0.4 mph WSW0.6 kmh WSW 2.2 mph3.5 kmh 30.47 in1031.8 mb 0.00 in0.0 mm 0.00 in0.0 mm 0.00 in0.0 mm
07:20 PM 63.0°F17.2°C 51.5°F10.8°C 66% 1.9 mph ESE3.1 kmh ESE 3.2 mph5.1 kmh 30.47 in1031.8 mb 0.00 in0.0 mm 0.00 in0.0 mm 0.00 in0.0 mm
07:25 PM 63.0°F17.2°C 51.5°F10.8°C 66% 1.6 mph SW2.6 kmh SW 4.7 mph7.6 kmh 30.47 in1031.8 mb 0.00 in0.0 mm 0.00 in0.0 mm 0.00 in0.0 mm
07:30 PM 63.1°F17.3°C 51.6°F10.9°C 66% 2.5 mph S4.0 kmh S 6.8 mph10.9 kmh 30.47 in1031.8 mb 0.00 in0.0 mm 0.00 in0.0 mm 0.00 in0.0 mm
07:35 PM 63.1°F17.3°C 51.2°F10.7°C 65% 1.7 mph S2.7 kmh S 4.2 mph6.8 kmh 30.47 in1031.8 mb 0.00 in0.0 mm 0.00 in0.0 mm 0.00 in0.0 mm
07:40 PM 63.1°F17.3°C 51.4°F10.8°C 66% 1.5 mph ENE2.4 kmh ENE 2.7 mph4.3 kmh 30.48 in1032.2 mb 0.00 in0.0 mm 0.00 in0.0 mm 0.00 in0.0 mm
07:45 PM 63.1°F17.3°C 51.6°F10.9°C 66% 1.6 mph SW2.6 kmh SW 3.2 mph5.1 kmh 30.48 in1032.2 mb 0.00 in0.0 mm 0.00 in0.0 mm 0.00 in0.0 mm
07:50 PM 63.1°F17.3°C 51.5°F10.8°C 66% 1.7 mph SSE2.7 kmh SSE 2.7 mph4.3 kmh 30.48 in1032.2 mb 0.00 in0.0 mm 0.00 in0.0 mm 0.00 in0.0 mm
07:55 PM 63.0°F17.2°C 51.5°F10.8°C 66% 1.5 mph SSE2.4 kmh SSE 2.7 mph4.3 kmh 30.48 in1032.2 mb 0.00 in0.0 mm 0.00 in0.0 mm 0.00 in0.0 mm
08:00 PM 63.0°F17.2°C 51.5°F10.8°C 66% 0.9 mph SE1.4 kmh SE 2.7 mph4.3 kmh 30.48 in1032.2 mb 0.00 in0.0 mm 0.00 in0.0 mm 0.00 in0.0 mm
08:05 PM 63.0°F17.2°C 51.2°F10.7°C 65% 1.4 mph S2.3 kmh S 3.2 mph5.1 kmh 30.48 in1032.2 mb 0.00 in0.0 mm 0.00 in0.0 mm 0.00 in0.0 mm
08:10 PM 62.8°F17.1°C 50.9°F10.5°C 65% 1.8 mph SW2.9 kmh SW 3.2 mph5.1 kmh 30.48 in1032.2 mb 0.00 in0.0 mm 0.00 in0.0 mm 0.00 in0.0 mm
08:15 PM 62.8°F17.1°C 50.9°F10.5°C 65% 2.0 mph S3.2 kmh S 3.7 mph6.0 kmh 30.48 in1032.2 mb 0.00 in0.0 mm 0.00 in0.0 mm 0.00 in0.0 mm
08:20 PM 62.8°F17.1°C 51.3°F10.7°C 66% 1.1 mph S1.8 kmh S 2.7 mph4.3 kmh 30.48 in1032.2 mb 0.00 in0.0 mm 0.00 in0.0 mm 0.00 in0.0 mm
08:25 PM 62.8°F17.1°C 51.6°F10.9°C 67% 1.8 mph WSW2.9 kmh WSW 3.7 mph6.0 kmh 30.48 in1032.2 mb 0.00 in0.0 mm 0.00 in0.0 mm 0.00 in0.0 mm
08:30 PM 62.8°F17.1°C 51.8°F11.0°C 67% 1.8 mph SSW2.9 kmh SSW 3.2 mph5.1 kmh 30.48 in1032.2 mb 0.00 in0.0 mm 0.00 in0.0 mm 0.00 in0.0 mm
08:35 PM 62.8°F17.1°C 52.1°F11.2°C 68% 1.5 mph S2.4 kmh S 3.2 mph5.1 kmh 30.48 in1032.2 mb 0.00 in0.0 mm 0.00 in0.0 mm 0.00 in0.0 mm
08:40 PM 62.8°F17.1°C 52.6°F11.4°C 69% 1.4 mph S2.3 kmh S 3.2 mph5.1 kmh 30.48 in1032.2 mb 0.00 in0.0 mm 0.00 in0.0 mm 0.00 in0.0 mm
08:45 PM 62.8°F17.1°C 52.7°F11.5°C 70% 1.6 mph S2.6 kmh S 2.7 mph4.3 kmh 30.48 in1032.2 mb 0.00 in0.0 mm 0.00 in0.0 mm 0.00 in0.0 mm
08:50 PM 62.8°F17.1°C 52.5°F11.4°C 69% 1.1 mph SSE1.8 kmh SSE 2.7 mph4.3 kmh 30.48 in1032.2 mb 0.00 in0.0 mm 0.00 in0.0 mm 0.00 in0.0 mm
08:55 PM 62.8°F17.1°C 52.5°F11.4°C 69% 1.5 mph S2.4 kmh S 3.7 mph6.0 kmh 30.48 in1032.2 mb 0.00 in0.0 mm 0.00 in0.0 mm 0.00 in0.0 mm
09:00 PM 62.8°F17.1°C 52.4°F11.3°C 69% 1.8 mph SE2.9 kmh SE 4.2 mph6.8 kmh 30.48 in1032.2 mb 0.00 in0.0 mm 0.00 in0.0 mm 0.00 in0.0 mm
09:05 PM 62.8°F17.1°C 52.3°F11.3°C 69% 0.6 mph S1.0 kmh S 2.7 mph4.3 kmh 30.48 in1032.2 mb 0.00 in0.0 mm 0.00 in0.0 mm 0.00 in0.0 mm
09:10 PM 62.6°F17.0°C 52.3°F11.3°C 69% 1.5 mph SSE2.4 kmh SSE 4.2 mph6.8 kmh 30.48 in1032.2 mb 0.00 in0.0 mm 0.00 in0.0 mm 0.00 in0.0 mm
09:15 PM 62.6°F17.0°C 52.5°F11.4°C 70% 1.3 mph S2.1 kmh S 3.7 mph6.0 kmh 30.48 in1032.2 mb 0.00 in0.0 mm 0.00 in0.0 mm 0.00 in0.0 mm
09:20 PM 62.6°F17.0°C 52.7°F11.5°C 70% 1.5 mph S2.4 kmh S 3.7 mph6.0 kmh 30.48 in1032.2 mb 0.00 in0.0 mm 0.00 in0.0 mm 0.00 in0.0 mm
09:25 PM 62.6°F17.0°C 52.3°F11.3°C 69% 1.4 mph S2.3 kmh S 2.7 mph4.3 kmh 30.48 in1032.2 mb 0.00 in0.0 mm 0.00 in0.0 mm 0.00 in0.0 mm
09:30 PM 62.6°F17.0°C 52.3°F11.3°C 69% 1.4 mph SW2.3 kmh SW 2.7 mph4.3 kmh 30.48 in1032.2 mb 0.00 in0.0 mm 0.00 in0.0 mm 0.00 in0.0 mm
09:35 PM 62.6°F17.0°C 52.5°F11.4°C 69% 1.2 mph S1.9 kmh S 2.7 mph4.3 kmh 30.48 in1032.2 mb 0.00 in0.0 mm 0.00 in0.0 mm 0.00 in0.0 mm
09:40 PM 62.6°F17.0°C 52.7°F11.5°C 70% 2.0 mph S3.2 kmh S 3.7 mph6.0 kmh 30.48 in1032.2 mb 0.00 in0.0 mm 0.00 in0.0 mm 0.00 in0.0 mm
09:45 PM 62.6°F17.0°C 52.7°F11.5°C 70% 1.9 mph S3.1 kmh S 3.2 mph5.1 kmh 30.48 in1032.2 mb 0.00 in0.0 mm 0.00 in0.0 mm 0.00 in0.0 mm
09:50 PM 62.6°F17.0°C 52.7°F11.5°C 70% 1.3 mph S2.1 kmh S 3.7 mph6.0 kmh 30.47 in1031.8 mb 0.00 in0.0 mm 0.00 in0.0 mm 0.00 in0.0 mm
09:55 PM 62.6°F17.0°C 53.1°F11.7°C 71% 1.5 mph S2.4 kmh S 3.2 mph5.1 kmh 30.47 in1031.8 mb 0.00 in0.0 mm 0.00 in0.0 mm 0.00 in0.0 mm
10:00 PM 62.6°F17.0°C 53.1°F11.7°C 71% 1.5 mph SSE2.4 kmh SSE 2.7 mph4.3 kmh 30.47 in1031.8 mb 0.00 in0.0 mm 0.00 in0.0 mm 0.00 in0.0 mm
10:05 PM 62.6°F17.0°C 53.1°F11.7°C 71% 1.2 mph S1.9 kmh S 2.7 mph4.3 kmh 30.46 in1031.5 mb 0.00 in0.0 mm 0.00 in0.0 mm 0.00 in0.0 mm
10:10 PM 62.6°F17.0°C 53.4°F11.9°C 72% 1.5 mph SSW2.4 kmh SSW 2.7 mph4.3 kmh 30.46 in1031.5 mb 0.00 in0.0 mm 0.00 in0.0 mm 0.00 in0.0 mm
10:15 PM 62.5°F16.9°C 53.5°F11.9°C 72% 1.0 mph SSE1.6 kmh SSE 2.2 mph3.5 kmh 30.46 in1031.5 mb 0.00 in0.0 mm 0.00 in0.0 mm 0.00 in0.0 mm
10:20 PM 62.4°F16.9°C 53.6°F12.0°C 73% 1.1 mph SE1.8 kmh SE 2.7 mph4.3 kmh 30.46 in1031.5 mb 0.00 in0.0 mm 0.00 in0.0 mm 0.00 in0.0 mm
10:25 PM 62.4°F16.9°C 53.9°F12.2°C 74% 0.4 mph WSW0.6 kmh WSW 2.2 mph3.5 kmh 30.46 in1031.5 mb 0.00 in0.0 mm 0.00 in0.0 mm 0.00 in0.0 mm
10:30 PM 62.2°F16.8°C 54.2°F12.3°C 75% 0.8 mph SSE1.3 kmh SSE 3.2 mph5.1 kmh 30.46 in1031.5 mb 0.00 in0.0 mm 0.00 in0.0 mm 0.00 in0.0 mm
10:35 PM 62.2°F16.8°C 53.8°F12.1°C 74% 1.6 mph SSW2.6 kmh SSW 3.2 mph5.1 kmh 30.46 in1031.5 mb 0.00 in0.0 mm 0.00 in0.0 mm 0.00 in0.0 mm
10:40 PM 62.4°F16.9°C 54.0°F12.2°C 74% 1.7 mph SE2.7 kmh SE 3.2 mph5.1 kmh 30.45 in1031.2 mb 0.00 in0.0 mm 0.00 in0.0 mm 0.00 in0.0 mm
10:45 PM 62.4°F16.9°C 54.0°F12.2°C 74% 1.5 mph S2.4 kmh S 3.7 mph6.0 kmh 30.45 in1031.2 mb 0.00 in0.0 mm 0.00 in0.0 mm 0.00 in0.0 mm
10:50 PM 62.4°F16.9°C 54.0°F12.2°C 74% 0.9 mph S1.4 kmh S 3.2 mph5.1 kmh 30.45 in1031.2 mb 0.00 in0.0 mm 0.00 in0.0 mm 0.00 in0.0 mm
10:55 PM 62.4°F16.9°C 54.0°F12.2°C 74% 1.2 mph S1.9 kmh S 3.2 mph5.1 kmh 30.45 in1031.2 mb 0.00 in0.0 mm 0.00 in0.0 mm 0.00 in0.0 mm
11:00 PM 62.4°F16.9°C 54.0°F12.2°C 74% 1.1 mph SE1.8 kmh SE 2.7 mph4.3 kmh 30.45 in1031.2 mb 0.00 in0.0 mm 0.00 in0.0 mm 0.00 in0.0 mm
11:05 PM 62.4°F16.9°C 54.4°F12.4°C 75% 1.5 mph SSE2.4 kmh SSE 2.7 mph4.3 kmh 30.45 in1031.2 mb 0.00 in0.0 mm 0.00 in0.0 mm 0.00 in0.0 mm
11:10 PM 62.4°F16.9°C 54.4°F12.4°C 75% 1.2 mph S1.9 kmh S 3.2 mph5.1 kmh 30.45 in1031.2 mb 0.00 in0.0 mm 0.00 in0.0 mm 0.00 in0.0 mm
11:15 PM 62.4°F16.9°C 54.7°F12.6°C 76% 0.4 mph SSW0.6 kmh SSW 2.2 mph3.5 kmh 30.44 in1030.8 mb 0.00 in0.0 mm 0.00 in0.0 mm 0.00 in0.0 mm
11:20 PM 62.4°F16.9°C 54.8°F12.7°C 76% 1.2 mph S1.9 kmh S 2.7 mph4.3 kmh 30.44 in1030.8 mb 0.00 in0.0 mm 0.00 in0.0 mm 0.00 in0.0 mm
11:25 PM 62.7°F17.1°C 55.1°F12.8°C 76% 1.1 mph SSW1.8 kmh SSW 2.7 mph4.3 kmh 30.45 in1031.2 mb 0.00 in0.0 mm 0.00 in0.0 mm 0.00 in0.0 mm
11:30 PM 62.8°F17.1°C 55.2°F12.9°C 76% 1.3 mph SE2.1 kmh SE 2.7 mph4.3 kmh 30.45 in1031.2 mb 0.00 in0.0 mm 0.00 in0.0 mm 0.00 in0.0 mm
11:35 PM 62.9°F17.2°C 55.5°F13.1°C 77% 1.1 mph SSE1.8 kmh SSE 2.7 mph4.3 kmh 30.45 in1031.2 mb 0.00 in0.0 mm 0.00 in0.0 mm 0.00 in0.0 mm
11:40 PM 63.0°F17.2°C 55.6°F13.1°C 77% 1.7 mph S2.7 kmh S 3.7 mph6.0 kmh 30.45 in1031.2 mb 0.00 in0.0 mm 0.00 in0.0 mm 0.00 in0.0 mm
11:45 PM 63.1°F17.3°C 55.4°F13.0°C 76% 0.6 mph S1.0 kmh S 2.7 mph4.3 kmh 30.45 in1031.2 mb 0.00 in0.0 mm 0.00 in0.0 mm 0.00 in0.0 mm
11:50 PM 63.1°F17.3°C 55.7°F13.2°C 77% 1.3 mph SSW2.1 kmh SSW 2.7 mph4.3 kmh 30.45 in1031.2 mb 0.00 in0.0 mm 0.00 in0.0 mm 0.00 in0.0 mm
11:55 PM 63.1°F17.3°C 55.8°F13.2°C 77% 1.1 mph S1.8 kmh S 2.7 mph4.3 kmh 30.44 in1030.8 mb 0.00 in0.0 mm 0.00 in0.0 mm 0.00 in0.0 mm